Terminal Aerodrome Forecast
Issued by NWS

Home | Current Version | Previous Version | Text Only | Print | Product List | Glossary Off
Versions: 1 2 3 4 5 6 7 8 9 10 11 12 13 14 15 16

506
FTUS43 KABR 250511 AAA
TAFMBG
TAF AMD
KMBG 250511Z 2505/2524 VRB06KT P6SM OVC100
     FM251300 19006KT P6SM BKN150
     FM252000 25008KT P6SM BKN100
     FM252300 31007KT P6SM BKN120=

USA.gov is the U.S. government's official web portal to all federal, state and local government web resources and services.